createdAt,value
2019-01-23T00:03:30.931Z,16.40
2019-01-23T00:06:11.615Z,18.37
2019-01-23T00:08:52.264Z,20.03
2019-01-23T00:11:33.274Z,15.90
2019-01-23T00:14:14.824Z,13.50
2019-01-23T00:16:56.247Z,17.20
2019-01-23T00:19:36.800Z,19.40
2019-01-23T00:22:17.451Z,18.93
2019-01-23T00:24:58.742Z,16.93
2019-01-23T00:27:40.199Z,16.23
2019-01-23T00:30:21.391Z,17.20
2019-01-23T00:33:02.636Z,17.47
2019-01-23T00:35:44.104Z,18.43
2019-01-23T00:38:25.672Z,14.37
2019-01-23T00:41:07.010Z,15.83
2019-01-23T00:43:46.988Z,14.47
2019-01-23T00:46:27.983Z,16.77
2019-01-23T00:49:08.628Z,17.13
2019-01-23T00:51:50.020Z,15.90
2019-01-23T00:54:31.485Z,17.50
2019-01-23T00:57:12.892Z,16.73
2019-01-23T00:59:52.451Z,18.37
2019-01-23T01:02:32.030Z,18.73
2019-01-23T01:05:20.857Z,21.03
2019-01-23T01:08:02.225Z,19.50
2019-01-23T01:10:43.656Z,21.97
2019-01-23T01:13:24.292Z,19.33
2019-01-23T01:16:04.941Z,23.10
2019-01-23T01:18:45.638Z,20.60
2019-01-23T01:21:26.424Z,22.37
2019-01-23T01:24:07.546Z,21.67
2019-01-23T01:26:48.371Z,25.10
2019-01-23T01:29:29.835Z,22.30
2019-01-23T01:32:10.997Z,22.80
2019-01-23T01:34:52.302Z,22.10
2019-01-23T01:37:33.006Z,20.33
2019-01-23T01:40:13.057Z,23.80
2019-01-23T01:43:01.616Z,24.13
2019-01-23T01:45:42.793Z,23.53
2019-01-23T01:48:24.093Z,21.93
2019-01-23T01:51:05.519Z,22.50
2019-01-23T01:53:46.870Z,23.73
2019-01-23T01:56:28.174Z,23.13
2019-01-23T01:59:09.459Z,27.27
2019-01-23T02:01:50.854Z,20.63
2019-01-23T02:04:32.073Z,22.17
2019-01-23T02:07:13.133Z,21.13
2019-01-23T02:09:54.184Z,22.93
2019-01-23T02:12:35.320Z,23.40
2019-01-23T02:15:16.090Z,24.60
2019-01-23T02:17:57.068Z,23.60
2019-01-23T02:20:37.836Z,24.27
2019-01-23T02:23:19.240Z,25.57
2019-01-23T02:25:59.571Z,25.30
2019-01-23T02:28:40.771Z,24.73
2019-01-23T02:31:22.256Z,25.50
2019-01-23T02:34:03.593Z,23.73
2019-01-23T02:36:45.071Z,25.63
2019-01-23T02:39:26.168Z,24.27
2019-01-23T02:42:07.278Z,31.20
2019-01-23T02:44:48.446Z,25.73
2019-01-23T02:47:29.320Z,31.57
2019-01-23T02:50:10.490Z,29.23
2019-01-23T02:52:51.612Z,28.27
2019-01-23T02:55:32.531Z,23.87
2019-01-23T02:58:12.107Z,31.20
2019-01-23T03:00:53.536Z,32.10
2019-01-23T03:03:34.494Z,29.87
2019-01-23T03:06:15.664Z,35.77
2019-01-23T03:08:55.264Z,31.03
2019-01-23T03:11:36.616Z,35.00
2019-01-23T03:14:18.055Z,35.37
2019-01-23T03:16:59.458Z,30.20
2019-01-23T03:19:40.244Z,27.87
2019-01-23T03:22:21.690Z,23.80
2019-01-23T03:25:02.285Z,34.43
2019-01-23T03:27:42.181Z,34.90
2019-01-23T03:30:30.656Z,35.73
2019-01-23T03:33:11.382Z,37.30
2019-01-23T03:35:52.700Z,34.13
2019-01-23T03:38:33.497Z,37.83
2019-01-23T03:41:14.984Z,36.77
2019-01-23T03:43:55.879Z,35.53
2019-01-23T03:46:36.466Z,36.47
2019-01-23T03:49:16.048Z,44.23
2019-01-23T03:54:53.176Z,35.87
2019-01-23T03:57:41.610Z,33.37
2019-01-23T04:00:22.470Z,37.43
2019-01-23T04:03:03.980Z,40.17
2019-01-23T04:05:44.614Z,33.93
2019-01-23T04:08:25.254Z,36.23
2019-01-23T04:11:06.073Z,39.73
2019-01-23T04:13:47.153Z,38.00
2019-01-23T04:16:28.210Z,35.90
2019-01-23T04:19:09.434Z,38.00
2019-01-23T04:21:50.131Z,32.07
2019-01-23T04:24:31.602Z,37.00
2019-01-23T04:27:12.577Z,39.70
2019-01-23T04:29:53.623Z,41.47
2019-01-23T04:32:34.931Z,43.10
2019-01-23T04:35:15.516Z,41.17
2019-01-23T04:37:56.499Z,34.03
2019-01-23T04:40:37.881Z,43.60
2019-01-23T04:43:19.519Z,43.10
2019-01-23T04:46:00.798Z,39.17
2019-01-23T04:48:41.642Z,41.73
2019-01-23T04:54:38.878Z,43.87
2019-01-23T04:57:18.729Z,44.93
2019-01-23T04:59:59.884Z,37.20
2019-01-23T05:02:41.012Z,41.10
2019-01-23T05:05:21.706Z,40.73
2019-01-23T05:08:03.248Z,45.07
2019-01-23T05:10:43.837Z,35.33
2019-01-23T05:13:24.488Z,22.53
2019-01-23T05:16:05.325Z,40.97
2019-01-23T05:18:46.015Z,48.53
2019-01-23T05:21:27.122Z,42.53
2019-01-23T05:24:08.575Z,45.90
2019-01-23T05:26:48.271Z,42.47
2019-01-23T05:32:37.082Z,44.83
2019-01-23T05:35:17.943Z,30.13
2019-01-23T05:37:58.874Z,31.20
2019-01-23T05:40:39.775Z,38.60
2019-01-23T05:43:21.017Z,24.67
2019-01-23T05:46:02.381Z,39.77
2019-01-23T05:48:43.703Z,35.77
2019-01-23T05:51:24.380Z,41.87
2019-01-23T05:54:06.004Z,46.13
2019-01-23T05:56:47.273Z,30.67
2019-01-23T05:59:28.667Z,45.90
2019-01-23T06:02:09.350Z,40.87
2019-01-23T06:04:50.470Z,45.43
2019-01-23T06:07:31.917Z,49.57
2019-01-23T06:10:13.009Z,45.03
2019-01-23T06:12:54.343Z,44.70
2019-01-23T06:15:35.527Z,48.60
2019-01-23T06:18:15.457Z,53.03
2019-01-23T06:20:56.262Z,49.00
2019-01-23T06:23:37.030Z,48.27
2019-01-23T06:26:17.779Z,51.27
2019-01-23T06:28:58.822Z,49.97
2019-01-23T06:31:40.186Z,56.40
2019-01-23T06:34:21.377Z,52.37
2019-01-23T06:37:02.870Z,49.53
2019-01-23T06:39:43.592Z,49.53
2019-01-23T06:42:25.077Z,45.73
2019-01-23T06:45:06.075Z,45.80
2019-01-23T06:47:47.607Z,52.37
2019-01-23T06:50:28.988Z,48.87
2019-01-23T06:53:14.004Z,46.00
2019-01-23T06:55:52.744Z,42.50
2019-01-23T06:58:34.113Z,43.47
2019-01-23T07:01:15.652Z,47.13
2019-01-23T07:03:56.280Z,50.10
2019-01-23T07:06:37.016Z,48.33
2019-01-23T07:09:17.599Z,51.17
2019-01-23T07:11:58.381Z,43.97
2019-01-23T07:14:39.538Z,48.30
2019-01-23T07:17:21.069Z,45.50
2019-01-23T07:20:02.550Z,44.63
2019-01-23T07:22:43.807Z,49.50
2019-01-23T07:25:24.345Z,49.57
2019-01-23T07:28:05.056Z,51.97
2019-01-23T07:30:46.154Z,38.70
2019-01-23T07:33:25.828Z,47.07
2019-01-23T07:36:07.216Z,53.30
2019-01-23T07:38:47.887Z,47.03
2019-01-23T07:41:29.466Z,47.83
2019-01-23T07:44:10.668Z,43.40
2019-01-23T07:46:51.930Z,44.53
2019-01-23T07:49:33.213Z,38.53
2019-01-23T07:52:14.296Z,51.37
2019-01-23T07:54:55.636Z,49.03
2019-01-23T07:57:36.379Z,46.33
2019-01-23T08:00:17.000Z,46.60
2019-01-23T08:02:58.355Z,45.70
2019-01-23T08:05:39.117Z,51.50
2019-01-23T08:08:19.887Z,55.73
2019-01-23T08:11:01.431Z,51.13
2019-01-23T08:13:42.528Z,58.00
2019-01-23T08:16:23.685Z,53.90
2019-01-23T08:19:04.836Z,54.97
2019-01-23T08:21:46.096Z,49.73
2019-01-23T08:24:27.123Z,51.27
2019-01-23T08:27:08.670Z,49.13
2019-01-23T08:29:50.182Z,44.97
2019-01-23T08:32:31.684Z,53.07
2019-01-23T08:35:12.998Z,48.57
2019-01-23T08:37:54.042Z,49.73
2019-01-23T08:40:35.425Z,49.30
2019-01-23T08:43:16.148Z,49.63
2019-01-23T08:45:57.219Z,50.70
2019-01-23T08:48:38.567Z,50.23
2019-01-23T08:51:19.859Z,46.67
2019-01-23T08:54:01.253Z,45.43
2019-01-23T08:56:42.332Z,42.37
2019-01-23T08:59:22.936Z,39.13
2019-01-23T09:02:04.179Z,40.03
2019-01-23T09:04:45.428Z,41.13
2019-01-23T09:07:27.001Z,40.47
2019-01-23T09:10:07.839Z,42.33
2019-01-23T09:12:49.348Z,43.70
2019-01-23T09:15:30.871Z,41.43
2019-01-23T09:18:12.352Z,40.57
2019-01-23T09:20:53.474Z,42.83
2019-01-23T09:23:34.959Z,48.37
2019-01-23T09:26:15.690Z,42.43
2019-01-23T09:28:55.710Z,52.50
2019-01-23T09:31:49.660Z,51.40
2019-01-23T09:34:31.020Z,52.47
2019-01-23T09:37:35.708Z,52.43
2019-01-23T09:40:17.028Z,52.90
2019-01-23T09:42:58.152Z,52.03
2019-01-23T09:45:38.863Z,55.27
2019-01-23T09:48:19.744Z,54.87
2019-01-23T09:51:00.756Z,50.67
2019-01-23T09:53:42.219Z,59.93
2019-01-23T09:56:23.380Z,48.90
2019-01-23T09:59:04.116Z,49.10
2019-01-23T10:01:45.362Z,53.97
2019-01-23T10:04:26.508Z,53.60
2019-01-23T10:07:08.276Z,52.40
2019-01-23T10:09:49.257Z,55.00
2019-01-23T10:12:30.088Z,52.67
2019-01-23T10:15:11.823Z,53.27
2019-01-23T10:17:53.052Z,39.80
2019-01-23T10:20:34.519Z,56.13
2019-01-23T10:23:15.614Z,48.50
2019-01-23T10:25:55.069Z,49.20
2019-01-23T10:28:36.145Z,52.30
2019-01-23T10:31:17.460Z,50.43
2019-01-23T10:33:58.631Z,52.57
2019-01-23T10:36:38.527Z,50.90
2019-01-23T10:39:19.466Z,50.33
2019-01-23T10:42:00.752Z,45.23
2019-01-23T10:44:41.451Z,50.27
2019-01-23T10:47:22.637Z,48.50
2019-01-23T10:50:03.321Z,50.97
2019-01-23T10:52:44.616Z,44.80
2019-01-23T10:55:25.347Z,48.67
2019-01-23T10:58:06.696Z,46.53
2019-01-23T11:00:48.297Z,42.53
2019-01-23T11:03:30.090Z,44.93
2019-01-23T11:06:10.972Z,46.63
2019-01-23T11:08:51.492Z,46.28
2019-01-23T11:11:32.278Z,42.23
2019-01-23T11:14:12.967Z,43.47
2019-01-23T11:16:53.541Z,46.23
2019-01-23T11:19:33.116Z,49.17
2019-01-23T11:22:13.781Z,45.53
2019-01-23T11:24:54.706Z,43.20
2019-01-23T11:27:36.110Z,45.97
2019-01-23T11:30:19.992Z,38.77
2019-01-23T11:33:01.480Z,45.17
2019-01-23T11:35:42.894Z,44.30
2019-01-23T11:38:23.488Z,45.73
2019-01-23T11:41:04.638Z,44.77
2019-01-23T11:43:45.991Z,43.60
2019-01-23T11:46:26.663Z,45.57
2019-01-23T11:49:07.632Z,44.00
2019-01-23T11:51:47.749Z,41.37
2019-01-23T11:54:28.656Z,45.03
2019-01-23T11:57:09.434Z,42.37
2019-01-23T11:59:51.003Z,42.53
2019-01-23T12:02:32.093Z,39.17
2019-01-23T12:05:12.424Z,46.83
2019-01-23T12:11:00.791Z,41.77
2019-01-23T12:13:42.352Z,42.30
2019-01-23T12:16:23.348Z,40.63
2019-01-23T12:19:04.783Z,37.53
2019-01-23T12:21:45.886Z,43.00
2019-01-23T12:24:26.500Z,40.90
2019-01-23T12:27:07.862Z,42.93
2019-01-23T12:29:49.012Z,40.47
2019-01-23T12:32:29.763Z,40.60
2019-01-23T12:35:10.452Z,38.87
2019-01-23T12:37:51.919Z,32.67
2019-01-23T12:40:33.354Z,42.00
2019-01-23T12:43:14.228Z,43.03
2019-01-23T12:45:55.576Z,43.50
2019-01-23T12:48:37.164Z,39.23
2019-01-23T12:51:19.074Z,42.60
2019-01-23T12:53:59.979Z,44.23
2019-01-23T12:56:40.674Z,41.63
2019-01-23T12:59:21.423Z,36.97
2019-01-23T13:02:09.578Z,41.43
2019-01-23T13:04:45.100Z,44.40
2019-01-23T13:07:25.770Z,36.67
2019-01-23T13:10:06.983Z,44.97
2019-01-23T13:12:47.997Z,44.13
2019-01-23T13:15:28.230Z,41.47
2019-01-23T13:21:06.705Z,42.67
2019-01-23T13:26:56.593Z,43.23
2019-01-23T13:29:37.323Z,45.13
2019-01-23T13:32:18.122Z,42.37
2019-01-23T13:34:58.705Z,42.00
2019-01-23T13:37:39.426Z,34.63
2019-01-23T13:40:20.936Z,44.20
2019-01-23T13:43:02.280Z,41.13
2019-01-23T13:45:42.887Z,41.63
2019-01-23T13:48:24.022Z,30.13
2019-01-23T13:51:03.457Z,33.97
2019-01-23T13:53:44.868Z,36.30
2019-01-23T13:56:25.533Z,38.20
2019-01-23T13:59:06.733Z,33.60
2019-01-23T14:01:48.242Z,37.83
2019-01-23T14:04:29.121Z,42.53
2019-01-23T14:07:10.654Z,39.67
2019-01-23T14:09:51.517Z,35.97
2019-01-23T14:12:32.942Z,37.67
2019-01-23T14:15:14.362Z,38.80
2019-01-23T14:17:55.397Z,37.53
2019-01-23T14:20:36.423Z,40.17
2019-01-23T14:23:16.551Z,39.10
2019-01-23T14:25:57.872Z,40.60
2019-01-23T14:28:39.350Z,42.83
2019-01-23T14:31:20.521Z,39.10
2019-01-23T14:34:02.001Z,35.30
2019-01-23T14:36:43.352Z,27.97
2019-01-23T14:39:24.830Z,36.80
2019-01-23T14:42:05.911Z,37.60
2019-01-23T14:44:45.308Z,38.13
2019-01-23T14:47:25.986Z,41.40
2019-01-23T14:50:07.407Z,36.17
2019-01-23T14:52:48.524Z,39.00
2019-01-23T14:55:29.896Z,38.33
2019-01-23T14:58:10.536Z,37.27
2019-01-23T15:00:51.993Z,37.37
2019-01-23T15:03:31.466Z,36.93
2019-01-23T15:06:19.979Z,37.33
2019-01-23T15:09:01.034Z,40.47
2019-01-23T15:11:41.767Z,40.43
2019-01-23T15:14:21.380Z,39.40
2019-01-23T15:17:09.875Z,40.23
2019-01-23T15:19:50.921Z,39.80
2019-01-23T15:22:31.706Z,39.90
2019-01-23T15:25:13.046Z,40.70
2019-01-23T15:27:54.508Z,41.03
2019-01-23T15:30:34.442Z,43.23
2019-01-23T15:36:28.333Z,36.97
2019-01-23T15:39:08.807Z,38.77
2019-01-23T15:41:50.312Z,40.37
2019-01-23T15:44:30.954Z,39.23
2019-01-23T15:47:12.019Z,37.57
2019-01-23T15:49:53.292Z,41.00
2019-01-23T15:52:34.588Z,42.37
2019-01-23T15:55:16.076Z,42.23
2019-01-23T15:57:57.089Z,42.47
2019-01-23T16:00:38.622Z,38.87
2019-01-23T16:03:19.514Z,36.13
2019-01-23T16:06:00.587Z,40.53
2019-01-23T16:08:41.966Z,43.53
2019-01-23T16:11:23.514Z,34.83
2019-01-23T16:14:04.508Z,40.83
2019-01-23T16:16:45.812Z,38.70
2019-01-23T16:19:27.128Z,36.20
2019-01-23T16:22:08.157Z,38.63
2019-01-23T16:24:49.248Z,37.43
2019-01-23T16:27:30.716Z,36.30
2019-01-23T16:33:27.634Z,35.37
2019-01-23T16:36:08.532Z,37.77
2019-01-23T16:38:49.755Z,37.37
2019-01-23T16:41:32.110Z,36.10
2019-01-23T16:44:13.172Z,40.87
2019-01-23T16:46:53.739Z,39.07
2019-01-23T16:49:35.129Z,39.73
2019-01-23T16:52:15.173Z,39.60
2019-01-23T16:54:55.996Z,37.93
2019-01-23T16:57:36.620Z,40.87
2019-01-23T17:00:18.373Z,38.20
2019-01-23T17:03:00.214Z,33.40
2019-01-23T17:05:41.334Z,40.10
2019-01-23T17:08:22.192Z,41.57
2019-01-23T17:11:02.877Z,37.17
2019-01-23T17:13:44.416Z,44.23
2019-01-23T17:16:25.398Z,38.97
2019-01-23T17:19:06.523Z,41.83
2019-01-23T17:21:46.031Z,44.73
2019-01-23T17:24:34.540Z,39.70
2019-01-23T17:27:15.734Z,39.73
2019-01-23T17:29:56.995Z,41.73
2019-01-23T17:32:38.323Z,44.10
2019-01-23T17:35:19.791Z,45.80
2019-01-23T17:38:00.538Z,39.23
2019-01-23T17:40:41.287Z,37.63
2019-01-23T17:43:21.912Z,38.70
2019-01-23T17:46:03.466Z,34.97
2019-01-23T17:48:42.984Z,36.73
2019-01-23T17:51:31.429Z,38.90
2019-01-23T17:54:12.103Z,37.73
2019-01-23T17:56:53.025Z,41.93
2019-01-23T17:59:34.366Z,40.03
2019-01-23T18:02:15.652Z,32.50
2019-01-23T18:04:57.020Z,32.73
2019-01-23T18:07:38.684Z,38.77
2019-01-23T18:10:18.956Z,33.27
2019-01-23T18:13:07.479Z,28.53
2019-01-23T18:15:48.497Z,36.97
2019-01-23T18:18:30.338Z,44.57
2019-01-23T18:21:10.904Z,34.63
2019-01-23T18:23:51.594Z,40.47
2019-01-23T18:26:37.588Z,40.27
2019-01-23T18:29:15.615Z,37.23
2019-01-23T18:31:56.433Z,25.43
2019-01-23T18:34:37.780Z,36.57
2019-01-23T18:37:19.189Z,33.37
2019-01-23T18:40:00.694Z,38.80
2019-01-23T18:42:42.095Z,40.67
2019-01-23T18:45:22.851Z,40.93
2019-01-23T18:48:04.114Z,43.43
2019-01-23T18:50:44.830Z,43.60
2019-01-23T18:53:25.959Z,32.40
2019-01-23T18:56:07.004Z,43.30
2019-01-23T18:58:47.656Z,42.60
2019-01-23T19:01:28.835Z,40.83
2019-01-23T19:04:10.361Z,42.53
2019-01-23T19:06:51.008Z,43.77
2019-01-23T19:09:31.577Z,41.77
2019-01-23T19:12:12.774Z,43.03
2019-01-23T19:14:54.260Z,42.13
2019-01-23T19:17:34.890Z,42.77
2019-01-23T19:20:16.006Z,41.07
2019-01-23T19:22:56.710Z,39.93
2019-01-23T19:25:38.226Z,37.53
2019-01-23T19:28:18.350Z,38.60
2019-01-23T19:30:59.149Z,40.70
2019-01-23T19:33:39.901Z,39.83
2019-01-23T19:36:21.112Z,40.23
2019-01-23T19:39:04.287Z,39.63
2019-01-23T19:41:44.934Z,38.20
2019-01-23T19:44:26.457Z,39.43
2019-01-23T19:47:07.921Z,39.10
2019-01-23T19:49:49.473Z,36.53
2019-01-23T19:52:30.912Z,42.80
2019-01-23T19:55:12.296Z,40.50
2019-01-23T19:57:53.342Z,41.23
2019-01-23T20:00:34.769Z,40.37
2019-01-23T20:03:20.256Z,43.57
2019-01-23T20:06:04.852Z,42.77
2019-01-23T20:08:46.388Z,42.10
2019-01-23T20:11:27.060Z,39.93
2019-01-23T20:14:08.517Z,44.07
2019-01-23T20:16:50.079Z,44.00
2019-01-23T20:19:30.871Z,35.87
2019-01-23T20:22:12.123Z,37.93
2019-01-23T20:24:53.568Z,41.77
2019-01-23T20:27:34.976Z,41.77
2019-01-23T20:30:15.957Z,43.90
2019-01-23T20:32:57.266Z,41.30
2019-01-23T20:35:38.651Z,45.07
2019-01-23T20:38:19.549Z,42.80
2019-01-23T20:41:00.902Z,43.30
2019-01-23T20:43:41.947Z,40.37
2019-01-23T20:46:23.517Z,45.27
2019-01-23T20:49:03.689Z,44.37
2019-01-23T20:51:44.821Z,39.70
2019-01-23T20:54:24.291Z,40.67
2019-01-23T20:57:05.864Z,40.30
2019-01-23T20:59:46.573Z,42.70
2019-01-23T21:02:27.781Z,42.43
2019-01-23T21:05:07.559Z,42.53
2019-01-23T21:07:48.440Z,42.13
2019-01-23T21:10:30.187Z,34.40
2019-01-23T21:13:11.371Z,42.20
2019-01-23T21:15:52.974Z,41.97
2019-01-23T21:18:34.102Z,45.03
2019-01-23T21:21:15.220Z,39.57
2019-01-23T21:23:56.371Z,40.27
2019-01-23T21:26:37.818Z,40.07
2019-01-23T21:29:19.005Z,42.37
2019-01-23T21:31:59.906Z,45.10
2019-01-23T21:34:40.833Z,37.67
2019-01-23T21:37:20.385Z,37.13
2019-01-23T21:40:01.764Z,39.57
2019-01-23T21:42:42.683Z,39.27
2019-01-23T21:45:23.286Z,41.20
2019-01-23T21:48:03.901Z,37.90
2019-01-23T21:50:44.649Z,37.90
2019-01-23T21:53:25.347Z,37.27
2019-01-23T21:56:06.355Z,42.10
2019-01-23T21:58:46.626Z,37.77
2019-01-23T22:01:27.487Z,40.20
2019-01-23T22:04:08.702Z,40.03
2019-01-23T22:06:50.295Z,38.87
2019-01-23T22:09:29.764Z,38.60
2019-01-23T22:12:10.868Z,38.20
2019-01-23T22:14:51.913Z,39.67
2019-01-23T22:17:31.367Z,34.97
2019-01-23T22:23:27.263Z,33.77
2019-01-23T22:26:08.337Z,36.33
2019-01-23T22:28:49.482Z,41.53
2019-01-23T22:31:30.086Z,40.73
2019-01-23T22:34:11.344Z,37.97
2019-01-23T22:36:52.698Z,41.17
2019-01-23T22:39:33.783Z,42.07
2019-01-23T22:42:15.105Z,38.23
2019-01-23T22:44:55.628Z,41.37
2019-01-23T22:47:36.324Z,38.60
2019-01-23T22:50:17.239Z,44.53
2019-01-23T22:52:58.009Z,35.67
2019-01-23T22:55:39.412Z,38.60
2019-01-23T22:58:20.360Z,38.17
2019-01-23T23:01:01.400Z,40.00
2019-01-23T23:03:42.961Z,42.10
2019-01-23T23:06:24.353Z,34.90
2019-01-23T23:09:07.484Z,42.07
2019-01-23T23:11:48.499Z,36.60
2019-01-23T23:14:29.588Z,39.97
2019-01-23T23:17:11.012Z,42.10
2019-01-23T23:19:52.235Z,42.43
2019-01-23T23:22:33.200Z,37.83
2019-01-23T23:25:13.808Z,41.77
2019-01-23T23:27:55.079Z,39.07
2019-01-23T23:30:36.227Z,35.87
2019-01-23T23:33:17.380Z,36.47
2019-01-23T23:35:58.870Z,36.77
2019-01-23T23:38:40.385Z,37.73
2019-01-23T23:41:21.890Z,36.17
2019-01-23T23:44:03.438Z,38.07
2019-01-23T23:46:45.016Z,33.90
2019-01-23T23:49:25.152Z,37.47
2019-01-23T23:55:13.334Z,38.87
2019-01-23T23:57:52.864Z,33.93
